Time;durP1;ratioP1;P1;durP2;ratioP2;P2;SDS_P1;SDS_P2;PMS_P1;PMS_P2;Temp;Humidity;BMP_temperature;BMP_pressure;BME280_temperature;BME280_humidity;BME280_pressure;Samples;Min_cycle;Max_cycle;Signal;HPM_P1;HPM_P2
2022/07/24 00:02:08;;;;;;;2.08;1.98;;;23.00;69.30;;;;;;5115688;28;20486;-56
2022/07/24 00:04:33;;;;;;;2.47;2.25;;;23.00;69.50;;;;;;5110864;28;20081;-56
2022/07/24 00:06:59;;;;;;;2.10;2.00;;;23.00;69.40;;;;;;5123518;27;20109;-56
2022/07/24 00:09:25;;;;;;;2.55;2.35;;;23.00;69.40;;;;;;5110993;27;20099;-56
2022/07/24 00:11:50;;;;;;;2.75;2.40;;;23.00;69.30;;;;;;5105482;28;20476;-56
2022/07/24 00:14:16;;;;;;;2.30;2.15;;;22.90;69.20;;;;;;5107352;27;20030;-55
2022/07/24 00:16:42;;;;;;;2.08;1.98;;;23.00;69.40;;;;;;5100810;28;20073;-56
2022/07/24 00:19:08;;;;;;;2.15;2.05;;;22.90;69.20;;;;;;5106407;28;20028;-57
2022/07/24 00:21:33;;;;;;;2.33;2.20;;;22.90;69.30;;;;;;5096426;28;20028;-55
2022/07/24 00:23:59;;;;;;;2.63;2.42;;;22.90;69.40;;;;;;5113688;28;20032;-56
2022/07/24 00:26:25;;;;;;;2.35;2.15;;;22.90;69.20;;;;;;5112052;28;20030;-57
2022/07/24 00:28:51;;;;;;;2.10;2.00;;;22.90;69.40;;;;;;5098377;28;20032;-57
2022/07/24 00:31:16;;;;;;;2.60;2.40;;;22.90;69.40;;;;;;5110058;28;20526;-56
2022/07/24 00:33:42;;;;;;;2.70;2.50;;;22.90;69.60;;;;;;5110882;28;20028;-56
2022/07/24 00:36:08;;;;;;;2.60;2.40;;;22.80;69.50;;;;;;5108350;28;20019;-56
2022/07/24 00:38:34;;;;;;;2.40;2.30;;;22.80;69.70;;;;;;5100646;28;20019;-56
2022/07/24 00:40:59;;;;;;;2.70;2.50;;;22.80;69.90;;;;;;5114973;28;20052;-57
2022/07/24 00:43:25;;;;;;;2.40;2.20;;;22.80;69.90;;;;;;5100802;28;20032;-56
2022/07/24 00:45:51;;;;;;;2.55;2.35;;;22.70;70.00;;;;;;5101926;28;20480;-56
2022/07/24 00:48:17;;;;;;;2.70;2.50;;;22.70;70.10;;;;;;5108457;28;20106;-56
2022/07/24 00:50:43;;;;;;;2.42;2.22;;;22.70;70.20;;;;;;5105353;28;20051;-56
2022/07/24 00:53:10;;;;;;;2.88;2.50;;;22.60;70.30;;;;;;5107066;28;20021;-56
2022/07/24 00:55:37;;;;;;;3.08;2.50;;;22.60;70.60;;;;;;5100625;28;20030;-56
2022/07/24 00:58:02;;;;;;;2.47;2.28;;;22.60;70.70;;;;;;5102630;28;20047;-56
2022/07/24 01:00:28;;;;;;;2.40;2.20;;;22.60;70.80;;;;;;5110615;28;20050;-56
2022/07/24 01:02:54;;;;;;;2.20;2.00;;;22.50;70.90;;;;;;5106017;28;20016;-56
2022/07/24 01:05:20;;;;;;;2.60;2.40;;;22.50;71.10;;;;;;5110956;28;20023;-55
2022/07/24 01:07:46;;;;;;;2.50;2.30;;;22.50;71.40;;;;;;5109714;28;20422;-55
2022/07/24 01:10:12;;;;;;;2.55;2.33;;;22.40;71.30;;;;;;5108947;28;20020;-55
2022/07/24 01:12:39;;;;;;;2.50;2.30;;;22.40;72.30;;;;;;5098310;27;20100;-57
2022/07/24 01:15:07;;;;;;;3.13;2.50;;;22.40;71.80;;;;;;5101592;28;20456;-56
2022/07/24 01:17:36;;;;;;;3.00;2.55;;;22.30;71.80;;;;;;5103267;28;20047;-57
2022/07/24 01:20:04;;;;;;;3.05;2.85;;;22.30;72.10;;;;;;5104979;28;20637;-56
2022/07/24 01:22:29;;;;;;;3.25;2.95;;;22.30;72.10;;;;;;5104314;28;20028;-56
2022/07/24 01:24:55;;;;;;;3.22;2.75;;;22.30;72.40;;;;;;5100756;28;20028;-57
2022/07/24 01:27:22;;;;;;;2.47;2.30;;;22.20;72.40;;;;;;5100781;28;20027;-54
2022/07/24 01:29:48;;;;;;;2.88;2.67;;;22.20;72.60;;;;;;5110776;28;20235;-56
2022/07/24 01:32:14;;;;;;;3.28;2.85;;;22.20;72.70;;;;;;5110425;28;20039;-56
2022/07/24 01:34:40;;;;;;;3.17;2.90;;;22.20;72.90;;;;;;5109956;28;20026;-57
2022/07/24 01:37:06;;;;;;;3.22;2.92;;;22.20;73.10;;;;;;5106249;28;20106;-56
2022/07/24 01:39:32;;;;;;;3.28;2.97;;;22.10;73.20;;;;;;5109134;28;20024;-56
2022/07/24 01:41:57;;;;;;;3.40;2.97;;;22.10;73.20;;;;;;5110269;28;20054;-56
2022/07/24 01:44:23;;;;;;;3.10;2.80;;;22.00;73.10;;;;;;5110752;28;20031;-57
2022/07/24 01:46:49;;;;;;;3.40;3.10;;;22.00;73.30;;;;;;5108032;28;20059;-56
2022/07/24 01:49:14;;;;;;;3.30;3.00;;;21.90;73.40;;;;;;5109677;28;20076;-56
2022/07/24 01:51:40;;;;;;;2.90;2.70;;;21.90;73.50;;;;;;5099295;28;20058;-57
2022/07/24 01:54:06;;;;;;;3.78;3.05;;;21.80;73.60;;;;;;5103047;28;20084;-57
2022/07/24 01:56:33;;;;;;;2.80;2.60;;;21.80;73.80;;;;;;5109266;28;20095;-56
2022/07/24 01:58:58;;;;;;;3.47;3.17;;;21.80;74.00;;;;;;5087137;28;20028;-56
2022/07/24 02:01:25;;;;;;;3.30;3.00;;;21.80;74.00;;;;;;5096010;28;20107;-56
2022/07/24 02:03:51;;;;;;;2.92;2.72;;;21.80;74.00;;;;;;5099684;28;20016;-56
2022/07/24 02:06:16;;;;;;;3.63;2.85;;;21.80;74.20;;;;;;5105334;28;20365;-56
2022/07/24 02:08:42;;;;;;;3.60;3.30;;;21.70;74.10;;;;;;5105642;28;20031;-56
2022/07/24 02:11:08;;;;;;;3.03;2.72;;;21.80;74.40;;;;;;5103295;28;20054;-56
2022/07/24 02:13:33;;;;;;;3.17;2.88;;;21.80;74.50;;;;;;5109180;28;20495;-56
2022/07/24 02:15:59;;;;;;;3.70;3.40;;;21.70;75.20;;;;;;5106312;28;20054;-57
2022/07/24 02:18:25;;;;;;;2.95;2.65;;;21.70;74.50;;;;;;5110631;28;20053;-57
2022/07/24 02:20:51;;;;;;;3.25;3.03;;;21.70;74.60;;;;;;5102969;28;20161;-56
2022/07/24 02:23:19;;;;;;;3.15;2.92;;;21.70;74.60;;;;;;5109035;27;20015;-56
2022/07/24 02:25:49;;;;;;;3.30;3.00;;;21.70;74.70;;;;;;5105780;28;20031;-56
2022/07/24 02:28:15;;;;;;;3.45;3.10;;;21.70;74.70;;;;;;5108500;28;20114;-56
2022/07/24 02:30:42;;;;;;;3.45;3.15;;;21.60;74.70;;;;;;5103156;28;20152;-56
2022/07/24 02:33:08;;;;;;;3.38;3.08;;;21.70;75.00;;;;;;5107608;28;20043;-56
2022/07/24 02:35:34;;;;;;;3.58;3.28;;;21.70;74.90;;;;;;5101811;28;20019;-56
2022/07/24 02:38:00;;;;;;;3.78;3.17;;;21.70;74.90;;;;;;5095053;28;20480;-57
2022/07/24 02:40:26;;;;;;;4.30;3.80;;;21.70;75.00;;;;;;5110370;28;20042;-55
2022/07/24 02:42:52;;;;;;;3.75;3.03;;;21.70;75.10;;;;;;5108718;28;20031;-57
2022/07/24 02:45:18;;;;;;;3.20;2.97;;;21.70;75.10;;;;;;5109761;28;20032;-56
2022/07/24 02:47:53;;;;;;;4.00;3.60;;;21.80;75.20;;;;;;5105351;28;20475;-56
2022/07/24 02:50:20;;;;;;;3.88;3.58;;;21.80;75.00;;;;;;5101066;28;20592;-57
2022/07/24 02:52:46;;;;;;;4.40;4.00;;;21.90;74.90;;;;;;5098665;27;20461;-56
2022/07/24 02:55:12;;;;;;;3.70;3.38;;;21.90;75.00;;;;;;5087826;28;20028;-56
2022/07/24 02:57:37;;;;;;;4.70;3.90;;;22.00;75.00;;;;;;5099277;28;20090;-56
2022/07/24 03:00:07;;;;;;;3.88;3.53;;;22.00;75.50;;;;;;5111269;28;20099;-56
2022/07/24 03:02:33;;;;;;;4.03;3.63;;;22.00;74.80;;;;;;5110327;28;20422;-56
2022/07/24 03:05:00;;;;;;;4.20;3.80;;;22.10;74.60;;;;;;5108586;28;20042;-57
2022/07/24 03:07:26;;;;;;;4.28;3.88;;;22.10;74.50;;;;;;5093807;28;20036;-55
2022/07/24 03:09:52;;;;;;;3.83;3.47;;;22.20;74.40;;;;;;5075668;28;20032;-57
2022/07/24 03:12:17;;;;;;;4.13;3.72;;;22.20;74.30;;;;;;5105812;28;20039;-57
2022/07/24 03:14:43;;;;;;;4.50;3.97;;;22.20;74.10;;;;;;5107750;28;20016;-56
2022/07/24 03:17:08;;;;;;;4.25;3.85;;;22.30;74.10;;;;;;5109890;28;20502;-55
2022/07/24 03:19:34;;;;;;;4.00;3.60;;;22.30;74.00;;;;;;5110468;28;20027;-57
2022/07/24 03:22:00;;;;;;;4.13;3.72;;;22.40;74.10;;;;;;5110624;28;20027;-56
2022/07/24 03:24:25;;;;;;;4.18;3.78;;;22.40;73.90;;;;;;5109147;28;20471;-57
2022/07/24 03:26:51;;;;;;;3.92;3.63;;;22.50;74.00;;;;;;5092374;28;20056;-56
2022/07/24 03:29:16;;;;;;;3.97;3.60;;;22.60;74.10;;;;;;5100164;28;20027;-56
2022/07/24 03:31:42;;;;;;;4.05;3.70;;;22.70;74.20;;;;;;5097727;28;20031;-57
2022/07/24 03:34:08;;;;;;;4.20;3.80;;;22.80;74.40;;;;;;5097585;28;20036;-56
2022/07/24 03:36:34;;;;;;;4.40;4.00;;;22.90;74.70;;;;;;5103759;28;20026;-56
2022/07/24 03:39:00;;;;;;;4.28;3.88;;;23.00;74.90;;;;;;5106970;28;20483;-56
2022/07/24 03:41:25;;;;;;;4.13;3.72;;;23.20;75.30;;;;;;5111643;28;20077;-55
2022/07/24 03:43:51;;;;;;;3.85;3.55;;;23.40;75.90;;;;;;5110502;28;20510;-57
2022/07/24 03:46:17;;;;;;;3.60;3.30;;;23.60;76.40;;;;;;5100810;28;20031;-57
2022/07/24 03:48:42;;;;;;;4.03;3.53;;;23.90;76.90;;;;;;5101763;28;20039;-57
2022/07/24 03:51:08;;;;;;;3.72;3.35;;;24.20;77.60;;;;;;5093384;28;20044;-57
2022/07/24 03:53:33;;;;;;;3.40;3.10;;;24.60;76.80;;;;;;5099056;28;20068;-57
2022/07/24 03:55:59;;;;;;;3.28;3.00;;;25.00;76.40;;;;;;5109343;28;20428;-57
2022/07/24 03:58:25;;;;;;;3.20;2.90;;;25.50;76.00;;;;;;5109302;28;20030;-57
2022/07/24 04:00:50;;;;;;;3.83;3.35;;;26.20;75.10;;;;;;5093119;28;20020;-57
2022/07/24 04:03:16;;;;;;;3.17;2.88;;;27.00;73.70;;;;;;5093106;28;20024;-57
2022/07/24 04:05:42;;;;;;;2.72;2.53;;;27.90;72.00;;;;;;5110637;28;20032;-57
2022/07/24 04:08:07;;;;;;;2.80;2.60;;;28.90;70.00;;;;;;5102168;28;20028;-61
2022/07/24 04:10:33;;;;;;;2.90;2.70;;;29.90;67.70;;;;;;5097036;28;20413;-61
2022/07/24 04:12:58;;;;;;;2.90;2.70;;;30.80;65.70;;;;;;5106727;28;20026;-61
2022/07/24 04:15:24;;;;;;;3.10;2.80;;;31.60;64.10;;;;;;5095982;28;20031;-60
2022/07/24 04:17:50;;;;;;;3.25;2.60;;;32.40;62.50;;;;;;5095082;28;20038;-60
2022/07/24 04:20:15;;;;;;;2.97;2.67;;;33.20;61.10;;;;;;5098661;28;20042;-60
2022/07/24 04:22:41;;;;;;;2.60;2.40;;;33.80;59.40;;;;;;5101242;28;20012;-61
2022/07/24 04:25:08;;;;;;;2.55;2.35;;;34.50;58.40;;;;;;5109107;28;20015;-60
2022/07/24 04:27:34;;;;;;;2.58;2.38;;;35.00;57.40;;;;;;5097902;28;20067;-61
2022/07/24 04:29:59;;;;;;;2.60;2.40;;;35.60;56.40;;;;;;5110324;28;20051;-60
2022/07/24 04:32:25;;;;;;;2.75;2.55;;;36.20;55.70;;;;;;5096981;28;20024;-61
2022/07/24 04:34:51;;;;;;;2.45;2.25;;;36.80;55.00;;;;;;5099964;28;20012;-61
2022/07/24 04:37:17;;;;;;;3.03;2.80;;;37.40;54.40;;;;;;5104057;28;20482;-61
2022/07/24 04:39:42;;;;;;;2.70;2.50;;;37.80;53.30;;;;;;5109451;28;20065;-61
2022/07/24 04:42:08;;;;;;;2.90;2.70;;;38.30;52.70;;;;;;5114767;28;20023;-61
2022/07/24 04:44:33;;;;;;;2.53;2.33;;;38.70;51.90;;;;;;5106733;28;20034;-61
2022/07/24 04:46:59;;;;;;;2.58;2.42;;;39.00;51.40;;;;;;5098444;27;20511;-61
2022/07/24 04:49:25;;;;;;;2.95;2.72;;;39.20;50.90;;;;;;5085797;28;20036;-61
2022/07/24 04:51:51;;;;;;;2.97;2.78;;;39.40;50.40;;;;;;5104911;28;20050;-61
2022/07/24 04:54:16;;;;;;;3.05;2.85;;;39.60;50.10;;;;;;5110025;28;20012;-61
2022/07/24 04:56:42;;;;;;;5.47;2.85;;;39.70;49.40;;;;;;5111126;28;20102;-60
2022/07/24 04:59:07;;;;;;;3.00;2.80;;;39.90;49.20;;;;;;5105233;28;20059;-61
2022/07/24 05:01:33;;;;;;;2.80;2.60;;;40.00;49.10;;;;;;5112331;28;20031;-60
2022/07/24 05:03:59;;;;;;;2.45;2.33;;;40.10;48.70;;;;;;5102188;28;20035;-61
2022/07/24 05:06:25;;;;;;;2.90;2.70;;;40.20;48.40;;;;;;5107210;28;20031;-60
2022/07/24 05:08:51;;;;;;;2.78;2.58;;;40.40;48.10;;;;;;5108867;28;20421;-61
2022/07/24 05:11:16;;;;;;;2.55;2.35;;;40.50;47.90;;;;;;5108579;28;20068;-61
2022/07/24 05:13:42;;;;;;;2.63;2.42;;;40.60;47.60;;;;;;5112894;28;20042;-60
2022/07/24 05:16:08;;;;;;;2.67;2.50;;;40.60;47.40;;;;;;5108962;28;20154;-60
2022/07/24 05:18:33;;;;;;;2.28;2.17;;;40.50;47.20;;;;;;5104269;27;20502;-61
2022/07/24 05:20:59;;;;;;;2.60;2.42;;;40.50;47.10;;;;;;5101575;28;20020;-61
2022/07/24 05:23:25;;;;;;;2.50;2.30;;;40.50;46.80;;;;;;5104105;28;20506;-61
2022/07/24 05:25:50;;;;;;;2.85;2.35;;;40.40;46.40;;;;;;5101570;28;20129;-61
2022/07/24 05:28:16;;;;;;;2.13;2.00;;;40.20;46.80;;;;;;5102424;28;20032;-60
2022/07/24 05:30:42;;;;;;;2.55;2.20;;;39.80;45.80;;;;;;5100965;28;20099;-61
2022/07/24 05:33:08;;;;;;;2.47;2.30;;;39.50;45.40;;;;;;5103332;28;20131;-60
2022/07/24 05:35:33;;;;;;;2.70;2.50;;;39.00;45.60;;;;;;5104331;28;20022;-61
2022/07/24 05:37:59;;;;;;;2.67;2.28;;;38.30;45.90;;;;;;5112773;28;20038;-60
2022/07/24 05:40:25;;;;;;;2.80;2.60;;;37.50;46.60;;;;;;5113107;28;20058;-60
2022/07/24 05:42:50;;;;;;;2.25;2.15;;;36.60;47.20;;;;;;5107113;28;20024;-60
2022/07/24 05:45:16;;;;;;;2.83;2.63;;;35.70;48.00;;;;;;5080321;28;20024;-60
2022/07/24 05:47:42;;;;;;;2.88;2.67;;;34.90;48.90;;;;;;5105263;28;20034;-60
2022/07/24 05:50:09;;;;;;;2.88;2.67;;;34.20;49.60;;;;;;5099469;28;20047;-60
2022/07/24 05:52:35;;;;;;;2.90;2.70;;;33.60;50.60;;;;;;5103180;28;20055;-60
2022/07/24 05:55:03;;;;;;;3.05;2.85;;;33.00;51.10;;;;;;5105991;28;20534;-60
2022/07/24 05:57:28;;;;;;;3.10;2.72;;;32.50;51.60;;;;;;5112090;28;20019;-60
2022/07/24 05:59:54;;;;;;;2.75;2.55;;;32.20;52.20;;;;;;5085788;28;20058;-60
2022/07/24 06:02:20;;;;;;;2.88;2.58;;;31.70;52.50;;;;;;5099812;28;20028;-60
2022/07/24 06:04:45;;;;;;;2.95;2.35;;;31.40;52.90;;;;;;5088977;28;20034;-60
2022/07/24 06:07:11;;;;;;;2.67;2.10;;;31.10;53.20;;;;;;5100819;28;20055;-60
2022/07/24 06:09:37;;;;;;;2.45;2.25;;;30.80;53.60;;;;;;5108315;28;20019;-60
2022/07/24 06:12:04;;;;;;;2.10;2.00;;;30.60;53.90;;;;;;5107715;28;20037;-60
2022/07/24 06:14:31;;;;;;;2.60;2.40;;;30.40;54.10;;;;;;5108298;28;20020;-60
2022/07/24 06:16:56;;;;;;;2.55;2.10;;;30.20;54.50;;;;;;5104434;28;20395;-60
2022/07/24 06:19:22;;;;;;;2.38;2.17;;;30.10;55.00;;;;;;5106847;28;20036;-60
2022/07/24 06:21:48;;;;;;;3.13;2.83;;;29.90;55.50;;;;;;5111724;28;20034;-60
2022/07/24 06:24:13;;;;;;;2.83;2.63;;;29.80;55.80;;;;;;5110048;28;20023;-60
2022/07/24 06:26:39;;;;;;;2.60;2.40;;;29.60;56.20;;;;;;5107507;28;20081;-60
2022/07/24 06:29:05;;;;;;;3.45;2.50;;;29.50;56.50;;;;;;5108434;28;20072;-60
2022/07/24 06:31:31;;;;;;;3.35;2.72;;;29.40;56.80;;;;;;5106888;28;20479;-60
2022/07/24 06:33:56;;;;;;;3.05;2.75;;;29.30;57.20;;;;;;5108239;28;20558;-60
2022/07/24 06:36:22;;;;;;;3.10;2.72;;;29.20;57.30;;;;;;5106987;28;20028;-60
2022/07/24 06:38:48;;;;;;;3.42;2.67;;;29.20;57.70;;;;;;5109877;28;20023;-60
2022/07/24 06:41:14;;;;;;;3.25;2.97;;;29.00;57.90;;;;;;5113262;27;20517;-60
2022/07/24 06:43:40;;;;;;;3.45;2.85;;;29.00;58.30;;;;;;5095897;28;20032;-60
2022/07/24 06:46:06;;;;;;;2.53;2.33;;;28.90;58.60;;;;;;5106152;28;20054;-60
2022/07/24 06:48:31;;;;;;;2.72;2.40;;;28.80;58.40;;;;;;5104482;28;20035;-60
2022/07/24 06:50:57;;;;;;;3.08;2.67;;;28.80;58.20;;;;;;5104204;28;20071;-60
2022/07/24 06:53:23;;;;;;;3.00;2.70;;;28.70;58.40;;;;;;5102425;28;20110;-60
2022/07/24 06:55:52;;;;;;;2.42;2.22;;;28.60;58.50;;;;;;5093924;28;20020;-60
2022/07/24 06:58:18;;;;;;;2.65;2.45;;;28.60;58.50;;;;;;5101619;28;20032;-60
2022/07/24 07:00:44;;;;;;;2.78;2.55;;;28.60;58.50;;;;;;5104580;28;20020;-60
2022/07/24 07:03:09;;;;;;;3.28;2.97;;;28.60;58.50;;;;;;5113055;27;20042;-60
2022/07/24 07:05:35;;;;;;;3.30;3.00;;;28.60;58.80;;;;;;5102234;28;20028;-60
2022/07/24 07:08:01;;;;;;;3.75;2.88;;;28.60;58.80;;;;;;5101896;28;20109;-60
2022/07/24 07:10:26;;;;;;;2.83;2.60;;;28.60;58.90;;;;;;5102188;28;20406;-60
2022/07/24 07:12:52;;;;;;;2.83;2.53;;;28.60;59.00;;;;;;5118792;27;20024;-60
2022/07/24 07:15:18;;;;;;;2.78;2.58;;;28.50;59.00;;;;;;5102370;28;20072;-60
2022/07/24 07:17:44;;;;;;;2.58;2.38;;;28.50;59.00;;;;;;5099972;28;20016;-60
2022/07/24 07:20:11;;;;;;;2.90;2.70;;;28.50;59.10;;;;;;5102864;28;20082;-60
2022/07/24 07:22:37;;;;;;;2.53;2.33;;;28.50;58.90;;;;;;5106854;28;20035;-60
2022/07/24 07:25:03;;;;;;;2.30;2.15;;;28.50;58.70;;;;;;5110582;28;20028;-60
2022/07/24 07:27:29;;;;;;;2.55;2.35;;;28.40;58.80;;;;;;5106377;28;20032;-60
2022/07/24 07:29:54;;;;;;;2.15;2.05;;;28.40;58.80;;;;;;5102175;28;20016;-60
2022/07/24 07:32:20;;;;;;;1.90;1.80;;;28.40;58.70;;;;;;5101671;28;20028;-59
2022/07/24 07:34:46;;;;;;;2.65;2.45;;;28.40;58.60;;;;;;5115614;28;20055;-60
2022/07/24 07:37:11;;;;;;;2.53;2.33;;;28.30;58.40;;;;;;5111764;28;20061;-60
2022/07/24 07:39:37;;;;;;;3.08;2.30;;;28.30;58.60;;;;;;5108620;28;20032;-60
2022/07/24 07:42:03;;;;;;;2.42;2.22;;;28.30;58.90;;;;;;5107155;28;20027;-59
2022/07/24 07:44:28;;;;;;;3.05;2.40;;;28.30;58.90;;;;;;5111607;28;20023;-60
2022/07/24 07:46:54;;;;;;;2.72;2.35;;;28.20;59.00;;;;;;5108367;28;20028;-60
2022/07/24 07:49:20;;;;;;;1.58;1.48;;;28.20;58.90;;;;;;5108536;28;20023;-60
2022/07/24 07:51:47;;;;;;;1.98;1.88;;;28.30;58.70;;;;;;5109034;28;20123;-60
2022/07/24 07:54:14;;;;;;;2.40;2.20;;;28.20;58.80;;;;;;5103930;27;20016;-60
2022/07/24 07:56:40;;;;;;;2.10;2.00;;;28.20;59.10;;;;;;5108680;27;20026;-60
2022/07/24 07:59:06;;;;;;;2.05;1.95;;;28.20;59.00;;;;;;5105661;27;20398;-59
2022/07/24 08:01:31;;;;;;;2.50;2.30;;;28.20;58.80;;;;;;5109538;27;20028;-60
2022/07/24 08:03:57;;;;;;;2.53;2.25;;;28.20;58.60;;;;;;5107142;28;20111;-60
2022/07/24 08:06:23;;;;;;;2.10;2.00;;;28.20;58.60;;;;;;5108427;28;20112;-59
2022/07/24 08:08:48;;;;;;;2.00;1.90;;;28.10;58.50;;;;;;5107686;27;20068;-57
2022/07/24 08:11:14;;;;;;;2.20;2.10;;;28.10;58.30;;;;;;5105946;27;20019;-60
2022/07/24 08:13:40;;;;;;;1.92;1.77;;;28.10;58.20;;;;;;5101777;28;20035;-60
2022/07/24 08:16:06;;;;;;;2.22;2.10;;;28.10;58.50;;;;;;5103545;27;20392;-60
2022/07/24 08:18:32;;;;;;;2.22;2.13;;;28.10;58.50;;;;;;5099103;28;20020;-60
2022/07/24 08:20:57;;;;;;;1.95;1.85;;;28.10;58.40;;;;;;5105004;27;20538;-59
2022/07/24 08:23:23;;;;;;;2.25;2.15;;;28.10;58.50;;;;;;5113448;27;20031;-60
2022/07/24 08:25:49;;;;;;;2.45;2.25;;;28.10;58.70;;;;;;5104255;27;20387;-59
2022/07/24 08:28:14;;;;;;;2.45;2.25;;;28.10;58.60;;;;;;5099791;27;20027;-60
2022/07/24 08:30:40;;;;;;;2.45;2.25;;;28.10;58.50;;;;;;5106289;28;20024;-60
2022/07/24 08:33:06;;;;;;;2.40;2.20;;;28.10;58.00;;;;;;5104484;27;20034;-60
2022/07/24 08:35:31;;;;;;;2.08;1.70;;;28.10;57.90;;;;;;5103268;27;20036;-59
2022/07/24 08:37:57;;;;;;;2.08;1.98;;;28.00;58.00;;;;;;5101287;28;20103;-60
2022/07/24 08:40:23;;;;;;;2.25;2.03;;;28.00;58.20;;;;;;5104446;28;20036;-59
2022/07/24 08:42:49;;;;;;;1.80;1.70;;;28.00;58.10;;;;;;5105068;28;20027;-59
2022/07/24 08:45:16;;;;;;;2.30;2.10;;;28.00;58.10;;;;;;5105124;28;20072;-59
2022/07/24 08:47:42;;;;;;;1.70;1.60;;;28.00;58.20;;;;;;5111025;28;20547;-59
2022/07/24 08:50:09;;;;;;;1.90;1.80;;;28.00;58.30;;;;;;5102410;28;20387;-59
2022/07/24 08:52:37;;;;;;;2.28;2.08;;;28.00;58.50;;;;;;5101746;28;20024;-59
2022/07/24 08:55:03;;;;;;;2.42;2.22;;;28.00;58.30;;;;;;5105267;28;20016;-60
2022/07/24 08:57:29;;;;;;;3.13;2.30;;;28.00;58.30;;;;;;5105686;28;20517;-59
2022/07/24 08:59:54;;;;;;;2.70;2.50;;;28.00;58.20;;;;;;5105932;28;20111;-60
2022/07/24 09:02:20;;;;;;;2.20;2.00;;;28.00;58.20;;;;;;5102296;27;20028;-60
2022/07/24 09:04:47;;;;;;;2.30;2.10;;;27.90;58.10;;;;;;5099858;28;20070;-60
2022/07/24 09:07:17;;;;;;;1.85;1.75;;;27.90;58.20;;;;;;5109058;28;20016;-59
2022/07/24 09:09:44;;;;;;;4.97;2.30;;;27.90;58.30;;;;;;5098388;27;20052;-60
2022/07/24 09:12:14;;;;;;;1.80;1.70;;;28.00;58.50;;;;;;5098704;28;20026;-59
2022/07/24 09:14:46;;;;;;;1.98;1.88;;;27.90;58.30;;;;;;5102787;28;20050;-60
2022/07/24 09:17:15;;;;;;;1.98;1.88;;;28.00;58.30;;;;;;5099958;28;20369;-59
2022/07/24 09:20:08;;;;;;;2.05;1.70;;;28.00;58.10;;;;;;5110605;28;20383;-59
2022/07/24 09:22:37;;;;;;;2.00;1.90;;;28.00;58.30;;;;;;5102298;28;20047;-59
2022/07/24 09:25:07;;;;;;;1.80;1.70;;;28.00;58.30;;;;;;5096416;28;20059;-60
2022/07/24 09:27:34;;;;;;;2.20;1.90;;;27.90;58.40;;;;;;5096774;28;20031;-59
2022/07/24 09:30:00;;;;;;;2.30;2.08;;;27.90;58.40;;;;;;5096198;28;20032;-60
2022/07/24 09:32:26;;;;;;;1.92;1.83;;;27.90;58.60;;;;;;5099427;28;20114;-60
2022/07/24 09:34:53;;;;;;;1.92;1.83;;;27.90;58.70;;;;;;5102834;28;20103;-60
2022/07/24 09:37:20;;;;;;;2.55;2.35;;;27.90;58.80;;;;;;5103439;28;20026;-60
2022/07/24 09:39:46;;;;;;;2.20;2.08;;;27.90;59.00;;;;;;5108470;28;20059;-60
2022/07/24 09:42:13;;;;;;;2.30;2.20;;;27.80;58.90;;;;;;5108037;28;20076;-60
2022/07/24 09:44:39;;;;;;;2.53;2.33;;;27.80;58.80;;;;;;5111476;28;20078;-62
2022/07/24 09:47:06;;;;;;;2.50;2.30;;;27.80;58.80;;;;;;5105964;28;20020;-60
2022/07/24 09:49:32;;;;;;;2.38;2.28;;;27.80;58.70;;;;;;5106198;28;20037;-59
2022/07/24 09:52:16;;;;;;;2.22;2.08;;;27.70;58.80;;;;;;5109315;28;20044;-58
2022/07/24 09:54:44;;;;;;;2.65;2.45;;;27.70;59.10;;;;;;5107772;28;20032;-60
2022/07/24 09:57:18;;;;;;;2.38;2.17;;;27.60;59.00;;;;;;5112217;28;20085;-60
2022/07/24 10:00:10;;;;;;;2.90;2.70;;;27.60;59.20;;;;;;5106605;27;20020;-59
2022/07/24 10:02:36;;;;;;;2.70;2.50;;;27.60;59.60;;;;;;5096463;28;20096;-59
2022/07/24 10:05:03;;;;;;;2.85;2.65;;;27.50;59.50;;;;;;5104453;28;20120;-59
2022/07/24 10:07:30;;;;;;;2.65;2.45;;;27.50;59.80;;;;;;5104508;28;20032;-59
2022/07/24 10:09:58;;;;;;;3.10;2.80;;;27.50;60.10;;;;;;5102596;28;20032;-59
2022/07/24 10:12:28;;;;;;;2.47;2.28;;;27.40;60.20;;;;;;5104098;28;20088;-59
2022/07/24 10:14:56;;;;;;;2.92;2.72;;;27.40;60.30;;;;;;5106238;28;20020;-58
2022/07/24 10:17:34;;;;;;;2.42;2.33;;;27.30;60.70;;;;;;5106028;27;20039;-59
2022/07/24 10:20:04;;;;;;;3.65;2.47;;;27.30;61.00;;;;;;5108035;28;20024;-59
2022/07/24 10:23:01;;;;;;;2.50;2.30;;;27.30;60.90;;;;;;5096801;28;20024;-59
2022/07/24 10:25:29;;;;;;;2.05;1.95;;;27.20;60.80;;;;;;5099591;27;20519;-59
2022/07/24 10:28:01;;;;;;;2.25;2.15;;;27.20;60.60;;;;;;5103621;28;20429;-59
2022/07/24 10:30:28;;;;;;;2.40;2.20;;;27.20;60.90;;;;;;5108817;28;20020;-59
2022/07/24 10:32:54;;;;;;;2.40;2.20;;;27.20;61.00;;;;;;5096032;28;20020;-59
2022/07/24 10:35:32;;;;;;;2.58;2.38;;;27.10;60.90;;;;;;5103088;27;20038;-59
2022/07/24 10:38:20;;;;;;;2.33;2.22;;;27.10;61.20;;;;;;5101334;28;20016;-59
2022/07/24 10:40:49;;;;;;;2.70;2.50;;;27.10;61.20;;;;;;5109984;28;20103;-59
2022/07/24 10:43:18;;;;;;;2.65;2.30;;;27.10;61.40;;;;;;5106287;27;20094;-59
2022/07/24 10:45:55;;;;;;;2.28;2.08;;;27.00;61.50;;;;;;5092324;28;20104;-59
2022/07/24 10:48:21;;;;;;;3.85;3.08;;;27.00;61.80;;;;;;5101139;28;21303;-59
2022/07/24 10:51:18;;;;;;;3.20;2.50;;;27.10;61.60;;;;;;5098682;28;20081;-59
2022/07/24 10:53:50;;;;;;;2.40;2.20;;;27.00;61.80;;;;;;5097291;28;20438;-59
2022/07/24 10:56:32;;;;;;;2.10;2.00;;;27.00;62.00;;;;;;5093114;28;20069;-59
2022/07/24 10:59:08;;;;;;;3.40;3.00;;;27.10;62.40;;;;;;5079328;28;20020;-60
2022/07/24 11:01:48;;;;;;;3.28;2.78;;;27.00;62.50;;;;;;5104747;28;20024;-59
2022/07/24 11:04:19;;;;;;;3.88;3.45;;;27.10;62.90;;;;;;5097775;28;20028;-59
2022/07/24 11:06:53;;;;;;;2.67;2.47;;;27.10;62.50;;;;;;5107163;28;20494;-59
2022/07/24 11:09:24;;;;;;;3.83;3.45;;;27.10;62.40;;;;;;5103664;28;20024;-59
2022/07/24 11:11:53;;;;;;;4.10;3.35;;;27.10;62.30;;;;;;5107605;28;20023;-59
2022/07/24 11:14:25;;;;;;;3.25;2.95;;;27.10;62.50;;;;;;5097724;28;20062;-59
2022/07/24 11:16:51;;;;;;;6.65;4.60;;;27.10;62.70;;;;;;5106674;27;20024;-59
2022/07/24 11:19:17;;;;;;;5.68;4.05;;;27.10;62.90;;;;;;5105218;28;20032;-59
2022/07/24 11:21:46;;;;;;;5.05;3.88;;;27.10;63.00;;;;;;5105214;28;20711;-59
2022/07/24 11:24:19;;;;;;;4.70;4.20;;;27.10;63.20;;;;;;5097563;28;20031;-59
2022/07/24 11:26:49;;;;;;;6.80;4.60;;;27.20;63.40;;;;;;5107192;28;20099;-59
2022/07/24 11:29:17;;;;;;;4.45;4.05;;;27.20;63.30;;;;;;5102437;28;20051;-59
2022/07/24 11:31:47;;;;;;;4.68;4.18;;;27.20;63.50;;;;;;5105589;28;20417;-59
2022/07/24 11:34:13;;;;;;;4.55;3.92;;;27.20;63.50;;;;;;5106364;28;20024;-59
2022/07/24 11:36:44;;;;;;;6.53;3.75;;;27.20;63.80;;;;;;5100623;28;20432;-59
2022/07/24 11:39:09;;;;;;;3.53;3.20;;;27.20;63.50;;;;;;5107923;28;20026;-59
2022/07/24 11:41:45;;;;;;;3.22;2.88;;;27.20;63.70;;;;;;5106101;28;20487;-59
2022/07/24 11:44:20;;;;;;;2.90;2.58;;;27.20;63.90;;;;;;5106942;28;20472;-59
2022/07/24 11:46:46;;;;;;;3.35;2.95;;;27.20;63.80;;;;;;5094868;28;20107;-59
2022/07/24 11:49:13;;;;;;;2.97;2.75;;;27.20;63.60;;;;;;5100270;28;20024;-59
2022/07/24 11:51:47;;;;;;;2.60;2.40;;;27.20;63.50;;;;;;5108456;28;20392;-59
2022/07/24 11:54:15;;;;;;;2.80;2.60;;;27.20;63.40;;;;;;5104503;28;20012;-59
2022/07/24 11:56:41;;;;;;;2.78;2.58;;;27.20;63.70;;;;;;5107591;28;20028;-59
2022/07/24 11:59:24;;;;;;;2.92;2.30;;;27.20;63.30;;;;;;5107343;28;20031;-59
2022/07/24 12:01:50;;;;;;;2.78;2.58;;;27.20;63.30;;;;;;5113415;28;20028;-59
2022/07/24 12:04:21;;;;;;;2.72;2.53;;;27.20;62.90;;;;;;5103979;28;20027;-59
2022/07/24 12:06:47;;;;;;;3.03;2.35;;;27.10;62.70;;;;;;5108944;28;20039;-59
2022/07/24 12:09:12;;;;;;;2.80;2.60;;;27.10;63.00;;;;;;5106814;28;20476;-59
2022/07/24 12:11:38;;;;;;;2.88;2.60;;;27.10;62.80;;;;;;5101083;28;20032;-59
2022/07/24 12:14:18;;;;;;;2.70;2.50;;;27.10;63.00;;;;;;5108812;28;20024;-59
2022/07/24 12:16:52;;;;;;;2.80;2.60;;;27.10;63.20;;;;;;5104916;28;20055;-59
2022/07/24 12:19:23;;;;;;;2.40;2.30;;;27.10;63.40;;;;;;5105332;28;20043;-59
2022/07/24 12:21:52;;;;;;;2.47;2.28;;;27.10;63.60;;;;;;5106168;28;20043;-59
2022/07/24 12:24:19;;;;;;;2.42;2.30;;;27.00;63.30;;;;;;5095114;28;20115;-57
2022/07/24 12:27:04;;;;;;;1.75;1.65;;;27.00;63.00;;;;;;5105236;28;20023;-59
2022/07/24 12:29:40;;;;;;;2.72;2.25;;;27.00;62.90;;;;;;5095104;28;20148;-59
2022/07/24 12:32:17;;;;;;;2.10;2.00;;;27.00;62.70;;;;;;5103676;28;20026;-59
2022/07/24 12:34:49;;;;;;;1.88;1.77;;;27.00;62.10;;;;;;5094217;28;20448;-60
2022/07/24 12:37:19;;;;;;;2.15;1.88;;;27.00;61.80;;;;;;5108089;28;20101;-59
2022/07/24 12:39:53;;;;;;;1.80;1.70;;;27.00;61.80;;;;;;5109994;28;20028;-59
2022/07/24 12:42:32;;;;;;;1.92;1.83;;;27.00;61.50;;;;;;5114010;28;20039;-59
2022/07/24 12:45:09;;;;;;;1.98;1.80;;;27.10;61.30;;;;;;5096316;28;20115;-59
2022/07/24 12:48:06;;;;;;;2.38;2.17;;;27.10;60.90;;;;;;5108304;28;20436;-59
2022/07/24 12:50:32;;;;;;;2.50;2.28;;;27.10;60.60;;;;;;5104966;28;20047;-59